createdAt,value
2019-03-03T00:00:09.675Z,100693.06
2019-03-03T00:02:35.653Z,100689.94
2019-03-03T00:05:01.667Z,100688.13
2019-03-03T00:07:27.651Z,100697.02
2019-03-03T00:09:53.629Z,100691.37
2019-03-03T00:12:19.637Z,100696.64
2019-03-03T00:14:45.624Z,100702.74
2019-03-03T00:17:11.721Z,100701.09
2019-03-03T00:19:37.710Z,100702.90
2019-03-03T00:22:03.683Z,100707.80
2019-03-03T00:24:29.677Z,100714.75
2019-03-03T00:26:55.656Z,100707.80
2019-03-03T00:29:21.677Z,100706.86
2019-03-03T00:31:47.737Z,100704.84
2019-03-03T00:34:13.711Z,100698.25
2019-03-03T00:36:39.745Z,100697.43
2019-03-03T00:39:05.780Z,100686.40
2019-03-03T00:41:31.794Z,100690.48
2019-03-03T00:43:57.829Z,100687.84
2019-03-03T00:46:23.829Z,100675.16
2019-03-03T00:48:49.814Z,100671.21
2019-03-03T00:51:15.846Z,100672.69
2019-03-03T00:53:41.925Z,100675.16
2019-03-03T00:56:07.937Z,100668.25
2019-03-03T00:58:33.931Z,100667.88
2019-03-03T01:00:59.912Z,100671.83
2019-03-03T01:03:25.915Z,100675.78
2019-03-03T01:05:55.043Z,100677.59
2019-03-03T01:08:21.070Z,100669.36
2019-03-03T01:10:47.145Z,100668.38
2019-03-03T01:13:13.147Z,100656.52
2019-03-03T01:15:39.141Z,100654.05
2019-03-03T01:18:05.122Z,100655.70
2019-03-03T01:20:31.114Z,100650.92
2019-03-03T01:22:57.150Z,100647.92
2019-03-03T01:25:23.203Z,100646.61
2019-03-03T01:27:50.216Z,100641.96
2019-03-03T01:30:16.202Z,100649.86
2019-03-03T01:32:42.214Z,100650.72
2019-03-03T01:35:08.192Z,100642.45
2019-03-03T01:37:34.189Z,100640.31
2019-03-03T01:40:00.278Z,100642.45
2019-03-03T01:42:26.425Z,100636.85
2019-03-03T01:44:52.398Z,100637.34
2019-03-03T01:47:18.385Z,100634.71
2019-03-03T01:49:44.359Z,100622.00
2019-03-03T01:52:10.329Z,100626.31
2019-03-03T01:54:36.378Z,100623.81
2019-03-03T01:57:02.358Z,100626.45
2019-03-03T01:59:28.371Z,100624.30
2019-03-03T02:01:54.359Z,100629.24
2019-03-03T02:04:20.449Z,100626.61
2019-03-03T02:06:46.453Z,100623.98
2019-03-03T02:09:12.426Z,100621.80
2019-03-03T02:11:38.410Z,100615.70
2019-03-03T02:14:04.505Z,100608.63
2019-03-03T02:16:30.552Z,100603.03
2019-03-03T02:18:56.546Z,100590.36
2019-03-03T02:21:22.558Z,100582.45
2019-03-03T02:23:48.704Z,100583.77
2019-03-03T02:26:14.686Z,100578.14
2019-03-03T02:28:40.780Z,100576.83
2019-03-03T02:31:06.761Z,100564.98
2019-03-03T02:33:32.837Z,100556.25
2019-03-03T02:35:58.821Z,100548.84
2019-03-03T02:38:24.882Z,100550.16
2019-03-03T02:40:50.866Z,100547.53
2019-03-03T02:43:17.155Z,100547.20
2019-03-03T02:45:43.147Z,100555.92
2019-03-03T02:48:09.156Z,100553.78
2019-03-03T02:50:35.168Z,100543.70
2019-03-03T02:53:01.168Z,100542.06
2019-03-03T02:55:27.162Z,100540.74
2019-03-03T02:57:53.150Z,100540.74
2019-03-03T03:00:19.127Z,100540.74
2019-03-03T03:02:48.868Z,100539.42
2019-03-03T03:05:14.857Z,100539.06
2019-03-03T03:07:40.866Z,100536.43
2019-03-03T03:10:06.870Z,100525.08
2019-03-03T03:12:32.955Z,100516.84
2019-03-03T03:14:58.958Z,100512.89
2019-03-03T03:17:25.016Z,100519.48
2019-03-03T03:19:50.997Z,100515.03
2019-03-03T03:22:16.994Z,100507.63
2019-03-03T03:24:42.977Z,100506.64
2019-03-03T03:27:08.960Z,100502.85
2019-03-03T03:29:37.026Z,100503.28
2019-03-03T03:32:03.093Z,100495.39
2019-03-03T03:34:29.089Z,100498.02
2019-03-03T03:36:55.162Z,100490.12
2019-03-03T03:39:21.157Z,100491.44
2019-03-03T03:41:47.141Z,100484.52
2019-03-03T03:44:13.213Z,100483.20
2019-03-03T03:46:39.205Z,100481.89
2019-03-03T03:49:05.201Z,100481.89
2019-03-03T03:51:31.177Z,100483.70
2019-03-03T03:53:57.173Z,100485.51
2019-03-03T03:56:23.149Z,100479.88
2019-03-03T03:58:49.149Z,100476.75
2019-03-03T04:01:16.193Z,100468.86
2019-03-03T04:03:42.204Z,100471.98
2019-03-03T04:06:08.197Z,100472.47
2019-03-03T04:08:34.297Z,100464.58
2019-03-03T04:11:00.306Z,100462.44
2019-03-03T04:13:26.362Z,100461.94
2019-03-03T04:15:52.356Z,100464.25
2019-03-03T04:18:18.344Z,100462.77
2019-03-03T04:20:44.327Z,100457.66
2019-03-03T04:23:10.306Z,100453.22
2019-03-03T04:25:36.321Z,100450.59
2019-03-03T04:28:03.384Z,100455.48
2019-03-03T04:30:30.423Z,100448.58
2019-03-03T04:32:56.408Z,100456.81
2019-03-03T04:35:22.405Z,100456.97
2019-03-03T04:37:48.417Z,100449.53
2019-03-03T04:40:14.480Z,100450.85
2019-03-03T04:42:40.470Z,100449.53
2019-03-03T04:45:06.632Z,100442.95
2019-03-03T04:47:32.664Z,100442.12
2019-03-03T04:49:58.658Z,100434.72
2019-03-03T04:52:24.645Z,100433.73
2019-03-03T04:54:50.633Z,100434.23
2019-03-03T04:57:16.633Z,100430.28
2019-03-03T04:59:42.605Z,100418.62
2019-03-03T05:02:08.689Z,100421.27
2019-03-03T05:04:34.691Z,100408.78
2019-03-03T05:07:00.687Z,100410.47
2019-03-03T05:09:26.673Z,100397.13
2019-03-03T05:11:52.708Z,100394.89
2019-03-03T05:14:18.702Z,100398.18
2019-03-03T05:16:44.696Z,100398.55
2019-03-03T05:19:10.798Z,100398.05
2019-03-03T05:21:36.780Z,100395.28
2019-03-03T05:24:02.894Z,100394.29
2019-03-03T05:26:28.873Z,100398.59
2019-03-03T05:28:54.881Z,100395.47
2019-03-03T05:31:21.074Z,100393.99
2019-03-03T05:33:49.116Z,100385.95
2019-03-03T05:36:15.128Z,100385.82
2019-03-03T05:38:41.176Z,100390.59
2019-03-03T05:41:07.177Z,100388.28
2019-03-03T05:43:33.156Z,100387.33
2019-03-03T05:45:59.234Z,100384.53
2019-03-03T05:48:25.220Z,100380.11
2019-03-03T05:50:51.211Z,100382.25
2019-03-03T05:53:17.243Z,100382.09
2019-03-03T05:55:43.221Z,100386.53
2019-03-03T05:58:09.214Z,100393.47
2019-03-03T06:00:35.228Z,100392.16
2019-03-03T06:03:01.252Z,100391.66
2019-03-03T06:05:27.260Z,100387.55
2019-03-03T06:07:54.333Z,100384.91
2019-03-03T06:10:20.324Z,100381.81
2019-03-03T06:12:46.323Z,100386.59
2019-03-03T06:15:12.821Z,100376.88
2019-03-03T06:17:39.073Z,100372.42
2019-03-03T06:20:05.081Z,100366.66
2019-03-03T06:22:31.063Z,100365.34
2019-03-03T06:24:57.056Z,100364.88
2019-03-03T06:27:23.060Z,100360.94
2019-03-03T06:29:51.156Z,100362.58
2019-03-03T06:32:17.167Z,100367.84
2019-03-03T06:34:43.140Z,100372.62
2019-03-03T06:37:09.132Z,100367.34
2019-03-03T06:39:35.158Z,100365.53
2019-03-03T06:42:01.209Z,100365.08
2019-03-03T06:44:27.293Z,100364.08
2019-03-03T06:46:53.308Z,100362.27
2019-03-03T06:49:19.299Z,100359.63
2019-03-03T06:51:45.310Z,100366.22
2019-03-03T06:54:11.356Z,100367.54
2019-03-03T06:56:37.340Z,100367.90
2019-03-03T06:59:03.363Z,100364.44
2019-03-03T07:01:29.397Z,100367.08
2019-03-03T07:03:55.382Z,100364.44
2019-03-03T07:06:21.391Z,100364.77
2019-03-03T07:08:47.418Z,100356.86
2019-03-03T07:11:13.505Z,100362.13
2019-03-03T07:13:39.596Z,100363.45
2019-03-03T07:16:05.581Z,100362.46
2019-03-03T07:18:31.658Z,100361.64
2019-03-03T07:20:57.718Z,100366.91
2019-03-03T07:23:23.685Z,100359.50
2019-03-03T07:25:49.688Z,100358.19
2019-03-03T07:28:17.231Z,100362.13
2019-03-03T07:30:43.364Z,100364.27
2019-03-03T07:33:09.344Z,100363.78
2019-03-03T07:35:35.377Z,100379.25
2019-03-03T07:38:01.357Z,100366.09
2019-03-03T07:40:27.369Z,100360.32
2019-03-03T07:42:53.425Z,100356.37
2019-03-03T07:45:19.431Z,100355.41
2019-03-03T07:47:45.438Z,100361.50
2019-03-03T07:50:11.444Z,100364.13
2019-03-03T07:52:37.461Z,100359.19
2019-03-03T07:55:03.464Z,100360.87
2019-03-03T07:57:31.793Z,100350.80
2019-03-03T07:59:57.794Z,100361.20
2019-03-03T08:02:23.794Z,100356.25
2019-03-03T08:04:50.114Z,100356.61
2019-03-03T08:07:16.187Z,100350.98
2019-03-03T08:09:42.251Z,100367.28
2019-03-03T08:12:08.517Z,100366.47
2019-03-03T08:14:34.728Z,100361.52
2019-03-03T08:17:00.711Z,100369.10
2019-03-03T08:19:27.781Z,100363.83
2019-03-03T08:21:54.757Z,100377.83
2019-03-03T08:24:20.905Z,100363.83
2019-03-03T08:26:47.021Z,100369.10
2019-03-03T08:29:13.148Z,100367.64
2019-03-03T08:31:40.184Z,100364.52
2019-03-03T08:34:06.200Z,100359.73
2019-03-03T08:36:32.211Z,100356.25
2019-03-03T08:38:58.223Z,100360.20
2019-03-03T08:41:24.289Z,100358.75
2019-03-03T08:43:50.322Z,100354.94
2019-03-03T08:46:16.315Z,100355.79
2019-03-03T08:48:42.403Z,100355.79
2019-03-03T08:51:08.457Z,100362.37
2019-03-03T08:53:34.584Z,100356.25
2019-03-03T08:56:00.660Z,100354.94
2019-03-03T08:58:26.658Z,100354.47
2019-03-03T09:00:53.709Z,100359.37
2019-03-03T09:03:19.682Z,100353.62
2019-03-03T09:05:45.678Z,100348.21
2019-03-03T09:08:11.688Z,100354.80
2019-03-03T09:10:37.676Z,100350.84
2019-03-03T09:13:03.760Z,100352.16
2019-03-03T09:15:29.759Z,100344.39
2019-03-03T09:17:56.810Z,100351.84
2019-03-03T09:20:22.884Z,100346.56
2019-03-03T09:22:48.951Z,100345.25
2019-03-03T09:25:14.972Z,100340.45
2019-03-03T09:27:41.136Z,100338.17
2019-03-03T09:30:07.174Z,100341.30
2019-03-03T09:32:33.243Z,100345.58
2019-03-03T09:34:59.251Z,100343.44
2019-03-03T09:37:25.260Z,100345.58
2019-03-03T09:39:51.254Z,100350.02
2019-03-03T09:42:17.270Z,100345.58
2019-03-03T09:44:43.342Z,100340.80
2019-03-03T09:47:09.469Z,100338.17
2019-03-03T09:49:35.492Z,100339.48
2019-03-03T09:52:01.625Z,100339.98
2019-03-03T09:54:27.720Z,100330.59
2019-03-03T09:56:53.779Z,100336.22
2019-03-03T09:59:19.915Z,100332.59
2019-03-03T10:01:45.945Z,100334.91
2019-03-03T10:04:11.944Z,100322.09
2019-03-03T10:06:37.957Z,100337.27
2019-03-03T10:09:04.291Z,100333.97
2019-03-03T10:11:33.438Z,100339.10
2019-03-03T10:13:59.455Z,100337.65
2019-03-03T10:16:25.468Z,100339.65
2019-03-03T10:18:51.454Z,100333.70
2019-03-03T10:21:17.448Z,100335.70
2019-03-03T10:23:43.608Z,100338.20
2019-03-03T10:26:09.673Z,100344.98
2019-03-03T10:28:37.227Z,100336.58
2019-03-03T10:31:03.300Z,100342.86
2019-03-03T10:33:31.331Z,100331.67
2019-03-03T10:35:57.448Z,100337.30
2019-03-03T10:38:24.617Z,100329.23
2019-03-03T10:40:50.609Z,100328.09
2019-03-03T10:43:17.646Z,100327.95
2019-03-03T10:45:43.796Z,100330.45
2019-03-03T10:48:09.899Z,100328.95
2019-03-03T10:50:35.892Z,100328.46
2019-03-03T10:53:01.888Z,100318.41
2019-03-03T10:55:27.877Z,100319.23
2019-03-03T10:57:53.914Z,100327.99
2019-03-03T11:00:19.937Z,100324.86
2019-03-03T11:02:45.976Z,100315.63
2019-03-03T11:05:12.054Z,100322.05
2019-03-03T11:07:39.216Z,100314.50
2019-03-03T11:10:05.279Z,100319.59
2019-03-03T11:12:31.296Z,100327.72
2019-03-03T11:14:57.323Z,100323.77
2019-03-03T11:17:23.344Z,100323.77
2019-03-03T11:19:49.325Z,100319.95
2019-03-03T11:22:23.510Z,100314.18
2019-03-03T11:24:49.571Z,100313.86
2019-03-03T11:27:15.613Z,100307.41
2019-03-03T11:29:41.651Z,100309.22
2019-03-03T11:32:07.733Z,100304.91
2019-03-03T11:34:34.797Z,100301.45
2019-03-03T11:37:00.815Z,100289.77
2019-03-03T11:39:26.805Z,100289.41
2019-03-03T11:41:52.803Z,100295.18
2019-03-03T11:44:18.891Z,100287.91
2019-03-03T11:46:44.903Z,100291.05
2019-03-03T11:49:10.887Z,100275.72
2019-03-03T11:51:36.918Z,100281.49
2019-03-03T11:54:02.907Z,100278.50
2019-03-03T11:56:28.927Z,100279.49
2019-03-03T11:58:54.994Z,100279.00
2019-03-03T12:01:21.110Z,100275.69
2019-03-03T12:03:47.139Z,100269.59
2019-03-03T12:06:13.120Z,100274.04
2019-03-03T12:08:39.156Z,100268.91
2019-03-03T12:11:05.181Z,100260.68
2019-03-03T12:13:31.284Z,100265.95
2019-03-03T12:15:57.288Z,100261.14
2019-03-03T12:18:24.730Z,100256.05
2019-03-03T12:20:51.841Z,100253.41
2019-03-03T12:23:17.853Z,100260.96
2019-03-03T12:25:43.838Z,100247.95
2019-03-03T12:28:10.870Z,100246.64
2019-03-03T12:30:36.854Z,100245.32
2019-03-03T12:33:02.863Z,100239.70
2019-03-03T12:35:28.986Z,100245.47
2019-03-03T12:37:55.027Z,100240.69
2019-03-03T12:40:21.023Z,100241.19
2019-03-03T12:42:47.014Z,100237.70
2019-03-03T12:45:13.141Z,100240.83
2019-03-03T12:47:39.177Z,100241.33
2019-03-03T12:50:05.221Z,100241.33
2019-03-03T12:52:32.244Z,100237.05
2019-03-03T12:54:58.333Z,100239.52
2019-03-03T12:57:24.346Z,100234.74
2019-03-03T12:59:50.436Z,100232.92
2019-03-03T13:02:16.463Z,100223.37
2019-03-03T13:04:43.521Z,100218.11
2019-03-03T13:07:09.590Z,100222.55
2019-03-03T13:09:35.574Z,100219.42
2019-03-03T13:12:01.603Z,100210.20
2019-03-03T13:14:27.708Z,100210.20
2019-03-03T13:16:53.700Z,100202.30
2019-03-03T13:19:19.789Z,100199.30
2019-03-03T13:21:45.791Z,100206.25
2019-03-03T13:24:11.807Z,100189.26
2019-03-03T13:26:37.901Z,100186.13
2019-03-03T13:29:03.995Z,100185.80
2019-03-03T13:31:30.019Z,100184.16
2019-03-03T13:33:56.029Z,100174.94
2019-03-03T13:36:22.082Z,100174.58
2019-03-03T13:38:48.118Z,100187.27
2019-03-03T13:41:14.133Z,100187.44
2019-03-03T13:43:40.193Z,100186.45
2019-03-03T13:46:06.277Z,100187.77
2019-03-03T13:48:33.403Z,100181.67
2019-03-03T13:50:59.500Z,100179.53
2019-03-03T13:53:25.586Z,100173.44
2019-03-03T13:55:51.583Z,100171.27
2019-03-03T13:58:17.698Z,100168.64
2019-03-03T14:00:43.778Z,100166.00
2019-03-03T14:03:09.828Z,100159.09
2019-03-03T14:05:36.903Z,100161.73
2019-03-03T14:08:02.921Z,100149.87
2019-03-03T14:10:28.923Z,100146.88
2019-03-03T14:12:54.923Z,100151.33
2019-03-03T14:15:20.918Z,100137.33
2019-03-03T14:17:46.909Z,100141.61
2019-03-03T14:20:12.960Z,100136.84
2019-03-03T14:22:38.973Z,100138.16
2019-03-03T14:25:05.033Z,100148.20
2019-03-03T14:27:31.081Z,100147.73
2019-03-03T14:29:57.195Z,100141.97
2019-03-03T14:32:23.207Z,100140.15
2019-03-03T14:34:49.219Z,100137.52
2019-03-03T14:37:15.286Z,100129.61
2019-03-03T14:39:41.289Z,100126.48
2019-03-03T14:42:07.302Z,100125.66
2019-03-03T14:44:33.316Z,100116.93
2019-03-03T14:47:00.406Z,100116.93
2019-03-03T14:49:26.401Z,100108.53
2019-03-03T14:51:52.485Z,100101.12
2019-03-03T14:54:18.489Z,100101.27
2019-03-03T14:56:44.468Z,100106.53
2019-03-03T14:59:10.449Z,100096.48
2019-03-03T15:01:36.456Z,100094.35
2019-03-03T15:04:02.621Z,100096.00
2019-03-03T15:06:28.645Z,100087.77
2019-03-03T15:08:54.671Z,100089.91
2019-03-03T15:11:20.689Z,100081.68
2019-03-03T15:13:46.677Z,100084.31
2019-03-03T15:16:12.718Z,100080.83
2019-03-03T15:18:38.779Z,100081.68
2019-03-03T15:21:04.863Z,100083.46
2019-03-03T15:23:30.851Z,100071.61
2019-03-03T15:25:56.873Z,100072.45
2019-03-03T15:28:22.882Z,100066.34
2019-03-03T15:30:48.885Z,100059.42
2019-03-03T15:33:14.884Z,100052.34
2019-03-03T15:35:40.990Z,100055.80
2019-03-03T15:38:07.067Z,100049.21
2019-03-03T15:40:33.092Z,100028.30
2019-03-03T15:43:00.089Z,100028.30
2019-03-03T15:45:26.122Z,100018.27
2019-03-03T15:47:52.142Z,100019.09
2019-03-03T15:50:18.193Z,100012.15
2019-03-03T15:52:44.247Z,100008.19
2019-03-03T15:55:10.299Z,100004.24
2019-03-03T15:57:36.340Z,100000.30
2019-03-03T16:00:02.370Z,99993.70
2019-03-03T16:02:28.429Z,99989.75
2019-03-03T16:04:54.416Z,99990.25
2019-03-03T16:07:20.417Z,99994.70
2019-03-03T16:09:46.421Z,99990.75
2019-03-03T16:12:12.465Z,99990.25
2019-03-03T16:14:38.445Z,99980.53
2019-03-03T16:17:04.444Z,99980.53
2019-03-03T16:19:30.507Z,99984.48
2019-03-03T16:21:56.533Z,99971.31
2019-03-03T16:24:25.790Z,99969.99
2019-03-03T16:26:51.890Z,99972.98
2019-03-03T16:29:17.921Z,99960.63
2019-03-03T16:31:44.041Z,99953.22
2019-03-03T16:34:10.063Z,99947.77
2019-03-03T16:36:36.104Z,99944.31
2019-03-03T16:39:02.129Z,99939.05
2019-03-03T16:41:30.136Z,99930.82
2019-03-03T16:43:56.120Z,99932.14
2019-03-03T16:46:22.115Z,99926.38
2019-03-03T16:48:48.193Z,99919.47
2019-03-03T16:51:16.282Z,99922.09
2019-03-03T16:53:42.303Z,99922.91
2019-03-03T16:56:08.374Z,99917.65
2019-03-03T16:58:34.391Z,99917.65
2019-03-03T17:01:00.387Z,99917.65
2019-03-03T17:03:26.398Z,99913.20
2019-03-03T17:05:52.405Z,99912.38
2019-03-03T17:08:18.438Z,99921.60
2019-03-03T17:10:44.435Z,99913.70
2019-03-03T17:13:10.426Z,99916.33
2019-03-03T17:15:36.439Z,99909.89
2019-03-03T17:18:02.424Z,99904.13
2019-03-03T17:20:28.561Z,99896.72
2019-03-03T17:22:54.682Z,99894.09
2019-03-03T17:25:20.673Z,99882.73
2019-03-03T17:27:46.842Z,99884.05
2019-03-03T17:30:12.962Z,99888.31
2019-03-03T17:32:38.983Z,99879.45
2019-03-03T17:35:06.991Z,99884.53
2019-03-03T17:37:33.078Z,99882.41
2019-03-03T17:39:59.110Z,99877.47
2019-03-03T17:42:26.185Z,99874.68
2019-03-03T17:44:52.310Z,99870.08
2019-03-03T17:47:18.397Z,99860.67
2019-03-03T17:52:16.342Z,99861.19
2019-03-03T17:54:42.397Z,99861.00
2019-03-03T17:57:10.442Z,99858.56
2019-03-03T17:59:36.699Z,99855.25
2019-03-03T18:02:03.372Z,99865.33
2019-03-03T18:04:30.211Z,99860.87
2019-03-03T18:06:56.289Z,99845.38
2019-03-03T18:09:22.309Z,99844.05
2019-03-03T18:11:48.351Z,99847.86
2019-03-03T18:14:14.418Z,99852.47
2019-03-03T18:16:40.523Z,99848.34
2019-03-03T18:19:06.524Z,99852.79
2019-03-03T18:21:32.512Z,99850.82
2019-03-03T18:23:59.542Z,99846.72
2019-03-03T18:26:25.539Z,99842.26
2019-03-03T18:28:51.579Z,99838.30
2019-03-03T18:31:17.683Z,99828.89
2019-03-03T18:38:59.311Z,99818.20
2019-03-03T18:41:25.412Z,99818.52
2019-03-03T18:43:53.588Z,99814.91
2019-03-03T18:46:19.894Z,99810.30
2019-03-03T18:48:45.920Z,99803.24
2019-03-03T18:51:11.900Z,99810.47
2019-03-03T18:53:43.090Z,99790.22
2019-03-03T18:56:09.418Z,99793.98
2019-03-03T18:58:35.513Z,99789.88
2019-03-03T19:01:01.508Z,99774.88
2019-03-03T19:03:27.545Z,99768.95
2019-03-03T19:05:56.027Z,99762.20
2019-03-03T19:08:21.452Z,99762.01
2019-03-03T19:10:47.444Z,99759.88
2019-03-03T19:13:13.420Z,99759.56
2019-03-03T19:15:39.448Z,99760.88
2019-03-03T19:18:05.463Z,99748.36
2019-03-03T19:20:31.597Z,99750.99
2019-03-03T19:22:57.604Z,99746.19
2019-03-03T19:25:23.602Z,99745.55
2019-03-03T19:27:49.618Z,99737.30
2019-03-03T19:30:15.605Z,99737.30
2019-03-03T19:32:43.777Z,99740.59
2019-03-03T19:35:09.310Z,99734.51
2019-03-03T19:37:35.331Z,99721.02
2019-03-03T19:40:01.341Z,99741.28
2019-03-03T19:42:27.405Z,99734.50
2019-03-03T19:44:53.434Z,99728.39
2019-03-03T19:47:19.468Z,99728.07
2019-03-03T19:49:45.449Z,99720.66
2019-03-03T19:52:11.474Z,99713.73
2019-03-03T19:54:37.571Z,99714.73
2019-03-03T19:57:03.596Z,99705.16
2019-03-03T19:59:29.677Z,99709.12
2019-03-03T20:01:55.746Z,99706.98
2019-03-03T20:04:21.816Z,99710.27
2019-03-03T20:06:47.886Z,99713.41
2019-03-03T20:09:13.932Z,99721.32
2019-03-03T20:11:40.006Z,99712.75
2019-03-03T20:14:06.025Z,99708.33
2019-03-03T20:16:32.012Z,99706.16
2019-03-03T20:18:58.051Z,99705.84
2019-03-03T20:21:24.045Z,99703.37
2019-03-03T20:23:50.049Z,99689.37
2019-03-03T20:26:16.123Z,99676.20
2019-03-03T20:28:43.243Z,99674.06
2019-03-03T20:31:09.254Z,99669.30
2019-03-03T20:33:35.271Z,99674.22
2019-03-03T20:36:01.273Z,99675.53
2019-03-03T20:38:28.409Z,99677.86
2019-03-03T20:40:54.416Z,99674.41
2019-03-03T20:43:20.432Z,99667.47
2019-03-03T20:45:46.548Z,99661.70
2019-03-03T20:48:12.592Z,99650.03
2019-03-03T20:50:38.614Z,99646.58
2019-03-03T20:53:04.631Z,99641.30
2019-03-03T20:55:30.622Z,99632.55
2019-03-03T20:57:56.606Z,99623.02
2019-03-03T21:00:22.646Z,99621.70
2019-03-03T21:02:48.653Z,99614.30
2019-03-03T21:05:15.707Z,99610.34
2019-03-03T21:07:50.890Z,99615.61
2019-03-03T21:10:10.158Z,99619.72
2019-03-03T21:12:36.201Z,99617.09
2019-03-03T21:15:02.201Z,99624.02
2019-03-03T21:17:28.225Z,99620.22
2019-03-03T21:19:54.210Z,99609.34
2019-03-03T21:22:20.236Z,99613.30
2019-03-03T21:24:46.221Z,99601.43
2019-03-03T21:27:12.231Z,99604.91
2019-03-03T21:29:38.258Z,99623.36
2019-03-03T21:32:04.266Z,99611.50
2019-03-03T21:34:31.307Z,99612.98
2019-03-03T21:36:57.310Z,99601.12
2019-03-03T21:39:23.435Z,99598.17
2019-03-03T21:41:49.455Z,99603.91
2019-03-03T21:44:16.485Z,99596.86
2019-03-03T21:46:42.542Z,99596.51
2019-03-03T21:49:08.534Z,99590.42
2019-03-03T21:51:34.566Z,99583.02
2019-03-03T21:54:00.586Z,99581.70
2019-03-03T21:56:26.616Z,99576.09
2019-03-03T21:58:52.596Z,99558.65
2019-03-03T22:01:18.620Z,99564.73
2019-03-03T22:03:44.601Z,99553.06
2019-03-03T22:06:10.655Z,99554.86
2019-03-03T22:08:36.638Z,99546.64
2019-03-03T22:11:02.638Z,99547.14
2019-03-03T22:13:28.698Z,99536.77
2019-03-03T22:15:54.693Z,99520.14
2019-03-03T22:18:20.696Z,99524.09
2019-03-03T22:20:46.692Z,99508.95
2019-03-03T22:23:12.750Z,99512.39
2019-03-03T22:25:38.770Z,99486.55
2019-03-03T22:28:04.757Z,99488.38
2019-03-03T22:30:30.766Z,99469.59
2019-03-03T22:32:56.777Z,99459.55
2019-03-03T22:35:22.767Z,99440.80
2019-03-03T22:37:48.781Z,99434.52
2019-03-03T22:40:14.830Z,99424.99
2019-03-03T22:42:40.833Z,99411.48
2019-03-03T22:45:07.905Z,99400.47
2019-03-03T22:47:34.996Z,99397.19
2019-03-03T22:50:00.994Z,99394.55
2019-03-03T22:52:27.052Z,99385.33
2019-03-03T22:54:53.628Z,99395.36
2019-03-03T22:57:19.695Z,99373.33
2019-03-03T22:59:45.769Z,99377.09
2019-03-03T23:02:11.907Z,99354.39
2019-03-03T23:04:37.959Z,99343.85
2019-03-03T23:07:04.151Z,99357.52
2019-03-03T23:09:30.154Z,99369.37
2019-03-03T23:11:56.167Z,99364.11
2019-03-03T23:14:22.197Z,99369.03
2019-03-03T23:16:48.218Z,99383.86
2019-03-03T23:19:15.256Z,99374.00
2019-03-03T23:21:41.320Z,99377.44
2019-03-03T23:24:07.702Z,99369.54
2019-03-03T23:26:33.701Z,99372.34
2019-03-03T23:28:59.727Z,99363.12
2019-03-03T23:31:25.750Z,99353.90
2019-03-03T23:33:51.761Z,99340.11
2019-03-03T23:36:17.817Z,99330.39
2019-03-03T23:38:43.826Z,99326.44
2019-03-03T23:41:09.849Z,99337.47
2019-03-03T23:43:35.862Z,99343.22
2019-03-03T23:46:01.916Z,99335.31
2019-03-03T23:48:28.915Z,99324.97
2019-03-03T23:50:54.928Z,99321.02
2019-03-03T23:53:20.980Z,99318.39
2019-03-03T23:55:46.995Z,99314.44
2019-03-03T23:58:13.021Z,99308.83
